sensor_id;sensor_type;location;lat;lon;timestamp;P1;durP1;ratioP1;P2;durP2;ratioP2
8219;SDS011;4151;51.110;7.020;2022-12-07T00:00:41;78.73;;;30.43;;
8219;SDS011;4151;51.110;7.020;2022-12-07T00:03:07;62.50;;;28.50;;
8219;SDS011;4151;51.110;7.020;2022-12-07T00:05:32;70.87;;;29.30;;
8219;SDS011;4151;51.110;7.020;2022-12-07T00:07:58;61.90;;;28.20;;
8219;SDS011;4151;51.110;7.020;2022-12-07T00:10:23;85.73;;;30.17;;
8219;SDS011;4151;51.110;7.020;2022-12-07T00:12:49;61.60;;;29.23;;
8219;SDS011;4151;51.110;7.020;2022-12-07T00:15:15;67.23;;;28.90;;
8219;SDS011;4151;51.110;7.020;2022-12-07T00:17:40;70.27;;;30.03;;
8219;SDS011;4151;51.110;7.020;2022-12-07T00:20:06;74.20;;;31.77;;
8219;SDS011;4151;51.110;7.020;2022-12-07T00:22:32;72.23;;;31.67;;
8219;SDS011;4151;51.110;7.020;2022-12-07T00:24:57;69.33;;;28.80;;
8219;SDS011;4151;51.110;7.020;2022-12-07T00:27:23;70.43;;;30.40;;
8219;SDS011;4151;51.110;7.020;2022-12-07T00:29:48;62.77;;;28.80;;
8219;SDS011;4151;51.110;7.020;2022-12-07T00:32:14;76.97;;;32.03;;
8219;SDS011;4151;51.110;7.020;2022-12-07T00:34:39;78.90;;;30.63;;
8219;SDS011;4151;51.110;7.020;2022-12-07T00:37:05;63.70;;;28.80;;
8219;SDS011;4151;51.110;7.020;2022-12-07T00:39:30;68.30;;;28.00;;
8219;SDS011;4151;51.110;7.020;2022-12-07T00:41:56;74.63;;;31.17;;
8219;SDS011;4151;51.110;7.020;2022-12-07T00:44:21;76.57;;;30.40;;
8219;SDS011;4151;51.110;7.020;2022-12-07T00:46:47;73.50;;;31.87;;
8219;SDS011;4151;51.110;7.020;2022-12-07T00:49:13;63.67;;;31.53;;
8219;SDS011;4151;51.110;7.020;2022-12-07T00:51:38;76.43;;;34.07;;
8219;SDS011;4151;51.110;7.020;2022-12-07T00:54:04;83.43;;;33.30;;
8219;SDS011;4151;51.110;7.020;2022-12-07T00:56:29;73.77;;;31.80;;
8219;SDS011;4151;51.110;7.020;2022-12-07T00:59:02;75.87;;;35.00;;
8219;SDS011;4151;51.110;7.020;2022-12-07T01:01:30;76.50;;;33.80;;
8219;SDS011;4151;51.110;7.020;2022-12-07T01:03:57;75.80;;;34.83;;
8219;SDS011;4151;51.110;7.020;2022-12-07T01:06:24;71.13;;;33.90;;
8219;SDS011;4151;51.110;7.020;2022-12-07T01:08:50;91.57;;;33.43;;
8219;SDS011;4151;51.110;7.020;2022-12-07T01:11:17;70.10;;;33.07;;
8219;SDS011;4151;51.110;7.020;2022-12-07T01:13:44;83.03;;;33.50;;
8219;SDS011;4151;51.110;7.020;2022-12-07T01:16:12;74.97;;;33.50;;
8219;SDS011;4151;51.110;7.020;2022-12-07T01:18:39;85.03;;;34.73;;
8219;SDS011;4151;51.110;7.020;2022-12-07T01:21:06;67.00;;;33.80;;
8219;SDS011;4151;51.110;7.020;2022-12-07T01:23:36;68.97;;;33.73;;
8219;SDS011;4151;51.110;7.020;2022-12-07T01:26:03;78.90;;;31.43;;
8219;SDS011;4151;51.110;7.020;2022-12-07T01:28:31;76.10;;;32.40;;
8219;SDS011;4151;51.110;7.020;2022-12-07T01:30:58;77.83;;;34.07;;
8219;SDS011;4151;51.110;7.020;2022-12-07T01:33:29;74.43;;;31.67;;
8219;SDS011;4151;51.110;7.020;2022-12-07T01:38:43;71.43;;;32.77;;
8219;SDS011;4151;51.110;7.020;2022-12-07T01:41:10;71.93;;;32.13;;
8219;SDS011;4151;51.110;7.020;2022-12-07T01:43:36;76.80;;;32.80;;
8219;SDS011;4151;51.110;7.020;2022-12-07T01:46:22;68.90;;;31.97;;
8219;SDS011;4151;51.110;7.020;2022-12-07T01:48:47;71.27;;;33.60;;
8219;SDS011;4151;51.110;7.020;2022-12-07T01:51:13;78.17;;;36.83;;
8219;SDS011;4151;51.110;7.020;2022-12-07T01:53:41;91.73;;;35.30;;
8219;SDS011;4151;51.110;7.020;2022-12-07T01:56:08;62.73;;;33.37;;
8219;SDS011;4151;51.110;7.020;2022-12-07T01:58:37;85.00;;;36.17;;
8219;SDS011;4151;51.110;7.020;2022-12-07T02:01:03;77.40;;;32.00;;
8219;SDS011;4151;51.110;7.020;2022-12-07T02:03:34;80.17;;;34.70;;
8219;SDS011;4151;51.110;7.020;2022-12-07T02:06:04;77.30;;;34.63;;
8219;SDS011;4151;51.110;7.020;2022-12-07T02:08:31;75.13;;;33.60;;
8219;SDS011;4151;51.110;7.020;2022-12-07T02:10:58;76.43;;;33.80;;
8219;SDS011;4151;51.110;7.020;2022-12-07T02:13:28;70.77;;;32.10;;
8219;SDS011;4151;51.110;7.020;2022-12-07T02:30:11;78.10;;;34.90;;
8219;SDS011;4151;51.110;7.020;2022-12-07T02:35:28;67.30;;;33.97;;
8219;SDS011;4151;51.110;7.020;2022-12-07T02:38:08;74.77;;;32.87;;
8219;SDS011;4151;51.110;7.020;2022-12-07T02:40:50;88.23;;;34.87;;
8219;SDS011;4151;51.110;7.020;2022-12-07T02:43:23;80.50;;;35.13;;
8219;SDS011;4151;51.110;7.020;2022-12-07T02:45:51;72.77;;;34.80;;
8219;SDS011;4151;51.110;7.020;2022-12-07T02:48:20;90.93;;;36.13;;
8219;SDS011;4151;51.110;7.020;2022-12-07T02:50:48;85.33;;;36.90;;
8219;SDS011;4151;51.110;7.020;2022-12-07T02:56:09;78.47;;;34.07;;
8219;SDS011;4151;51.110;7.020;2022-12-07T02:59:29;72.83;;;34.80;;
8219;SDS011;4151;51.110;7.020;2022-12-07T03:10:16;81.30;;;34.27;;
8219;SDS011;4151;51.110;7.020;2022-12-07T03:13:02;77.20;;;34.03;;
8219;SDS011;4151;51.110;7.020;2022-12-07T03:15:40;80.30;;;36.20;;
8219;SDS011;4151;51.110;7.020;2022-12-07T03:18:28;82.53;;;35.27;;
8219;SDS011;4151;51.110;7.020;2022-12-07T03:20:58;82.67;;;34.07;;
8219;SDS011;4151;51.110;7.020;2022-12-07T03:23:27;72.30;;;33.37;;
8219;SDS011;4151;51.110;7.020;2022-12-07T03:25:57;75.27;;;33.77;;
8219;SDS011;4151;51.110;7.020;2022-12-07T03:28:26;74.67;;;31.70;;
8219;SDS011;4151;51.110;7.020;2022-12-07T03:30:57;80.20;;;33.73;;
8219;SDS011;4151;51.110;7.020;2022-12-07T03:33:47;72.50;;;33.30;;
8219;SDS011;4151;51.110;7.020;2022-12-07T03:36:23;75.67;;;33.83;;
8219;SDS011;4151;51.110;7.020;2022-12-07T03:38:58;71.17;;;33.97;;
8219;SDS011;4151;51.110;7.020;2022-12-07T03:41:30;80.37;;;33.60;;
8219;SDS011;4151;51.110;7.020;2022-12-07T03:43:57;72.90;;;32.07;;
8219;SDS011;4151;51.110;7.020;2022-12-07T03:49:06;74.97;;;33.20;;
8219;SDS011;4151;51.110;7.020;2022-12-07T03:51:45;75.80;;;35.43;;
8219;SDS011;4151;51.110;7.020;2022-12-07T03:54:24;74.20;;;34.30;;
8219;SDS011;4151;51.110;7.020;2022-12-07T03:56:55;73.60;;;33.10;;
8219;SDS011;4151;51.110;7.020;2022-12-07T03:59:22;73.20;;;33.93;;
8219;SDS011;4151;51.110;7.020;2022-12-07T04:01:52;74.07;;;32.90;;
8219;SDS011;4151;51.110;7.020;2022-12-07T04:04:21;69.93;;;32.00;;
8219;SDS011;4151;51.110;7.020;2022-12-07T04:06:47;71.47;;;33.40;;
8219;SDS011;4151;51.110;7.020;2022-12-07T04:09:13;69.57;;;30.40;;
8219;SDS011;4151;51.110;7.020;2022-12-07T04:11:39;67.43;;;33.03;;
8219;SDS011;4151;51.110;7.020;2022-12-07T04:14:05;63.60;;;32.67;;
8219;SDS011;4151;51.110;7.020;2022-12-07T04:16:43;64.93;;;31.50;;
8219;SDS011;4151;51.110;7.020;2022-12-07T04:19:17;75.53;;;33.40;;
8219;SDS011;4151;51.110;7.020;2022-12-07T04:21:44;68.30;;;33.10;;
8219;SDS011;4151;51.110;7.020;2022-12-07T04:24:11;65.17;;;33.30;;
8219;SDS011;4151;51.110;7.020;2022-12-07T04:26:37;60.30;;;30.10;;
8219;SDS011;4151;51.110;7.020;2022-12-07T04:29:03;73.03;;;32.10;;
8219;SDS011;4151;51.110;7.020;2022-12-07T04:31:28;72.67;;;31.40;;
8219;SDS011;4151;51.110;7.020;2022-12-07T04:33:54;58.80;;;29.50;;
8219;SDS011;4151;51.110;7.020;2022-12-07T04:36:19;54.13;;;28.40;;
8219;SDS011;4151;51.110;7.020;2022-12-07T04:38:45;58.40;;;28.50;;
8219;SDS011;4151;51.110;7.020;2022-12-07T04:41:12;64.20;;;29.70;;
8219;SDS011;4151;51.110;7.020;2022-12-07T04:43:37;58.93;;;28.03;;
8219;SDS011;4151;51.110;7.020;2022-12-07T04:46:03;65.37;;;29.50;;
8219;SDS011;4151;51.110;7.020;2022-12-07T04:48:29;58.87;;;28.63;;
8219;SDS011;4151;51.110;7.020;2022-12-07T04:50:54;63.10;;;28.67;;
8219;SDS011;4151;51.110;7.020;2022-12-07T04:53:20;54.20;;;29.40;;
8219;SDS011;4151;51.110;7.020;2022-12-07T04:55:46;60.50;;;29.50;;
8219;SDS011;4151;51.110;7.020;2022-12-07T04:58:11;71.03;;;27.70;;
8219;SDS011;4151;51.110;7.020;2022-12-07T05:00:38;52.90;;;27.00;;
8219;SDS011;4151;51.110;7.020;2022-12-07T05:03:04;53.87;;;28.23;;
8219;SDS011;4151;51.110;7.020;2022-12-07T05:05:29;61.10;;;28.13;;
8219;SDS011;4151;51.110;7.020;2022-12-07T05:07:55;52.50;;;28.73;;
8219;SDS011;4151;51.110;7.020;2022-12-07T05:10:21;51.33;;;27.57;;
8219;SDS011;4151;51.110;7.020;2022-12-07T05:12:46;52.77;;;26.97;;
8219;SDS011;4151;51.110;7.020;2022-12-07T05:15:12;60.70;;;28.73;;
8219;SDS011;4151;51.110;7.020;2022-12-07T05:17:39;58.93;;;28.20;;
8219;SDS011;4151;51.110;7.020;2022-12-07T05:20:05;70.93;;;29.97;;
8219;SDS011;4151;51.110;7.020;2022-12-07T05:22:31;58.17;;;30.50;;
8219;SDS011;4151;51.110;7.020;2022-12-07T05:24:56;62.57;;;27.47;;
8219;SDS011;4151;51.110;7.020;2022-12-07T05:27:22;55.83;;;27.30;;
8219;SDS011;4151;51.110;7.020;2022-12-07T05:29:49;65.30;;;27.93;;
8219;SDS011;4151;51.110;7.020;2022-12-07T05:32:15;55.53;;;27.73;;
8219;SDS011;4151;51.110;7.020;2022-12-07T05:34:41;62.70;;;27.80;;
8219;SDS011;4151;51.110;7.020;2022-12-07T05:37:07;56.93;;;27.07;;
8219;SDS011;4151;51.110;7.020;2022-12-07T05:39:32;53.63;;;26.13;;
8219;SDS011;4151;51.110;7.020;2022-12-07T05:41:58;52.47;;;25.70;;
8219;SDS011;4151;51.110;7.020;2022-12-07T05:44:39;56.20;;;27.10;;
8219;SDS011;4151;51.110;7.020;2022-12-07T05:47:05;55.90;;;25.73;;
8219;SDS011;4151;51.110;7.020;2022-12-07T05:49:31;54.93;;;25.60;;
8219;SDS011;4151;51.110;7.020;2022-12-07T05:51:57;50.60;;;26.17;;
8219;SDS011;4151;51.110;7.020;2022-12-07T05:54:23;51.20;;;26.33;;
8219;SDS011;4151;51.110;7.020;2022-12-07T05:56:48;53.80;;;25.83;;
8219;SDS011;4151;51.110;7.020;2022-12-07T05:59:14;49.90;;;24.07;;
8219;SDS011;4151;51.110;7.020;2022-12-07T06:02:10;58.83;;;25.10;;
8219;SDS011;4151;51.110;7.020;2022-12-07T06:04:40;53.70;;;25.77;;
8219;SDS011;4151;51.110;7.020;2022-12-07T06:07:08;58.63;;;24.60;;
8219;SDS011;4151;51.110;7.020;2022-12-07T06:09:35;53.10;;;25.10;;
8219;SDS011;4151;51.110;7.020;2022-12-07T06:12:01;48.23;;;26.37;;
8219;SDS011;4151;51.110;7.020;2022-12-07T06:14:45;51.20;;;24.67;;
8219;SDS011;4151;51.110;7.020;2022-12-07T06:17:11;48.20;;;22.70;;
8219;SDS011;4151;51.110;7.020;2022-12-07T06:19:37;56.63;;;24.07;;
8219;SDS011;4151;51.110;7.020;2022-12-07T06:22:04;47.70;;;22.60;;
8219;SDS011;4151;51.110;7.020;2022-12-07T06:24:30;56.73;;;24.83;;
8219;SDS011;4151;51.110;7.020;2022-12-07T06:26:56;45.67;;;23.60;;
8219;SDS011;4151;51.110;7.020;2022-12-07T06:29:22;47.90;;;23.50;;
8219;SDS011;4151;51.110;7.020;2022-12-07T06:31:48;50.37;;;22.23;;
8219;SDS011;4151;51.110;7.020;2022-12-07T06:34:14;49.90;;;23.70;;
8219;SDS011;4151;51.110;7.020;2022-12-07T06:36:41;45.13;;;23.43;;
8219;SDS011;4151;51.110;7.020;2022-12-07T06:39:07;47.40;;;25.50;;
8219;SDS011;4151;51.110;7.020;2022-12-07T06:41:34;49.63;;;24.50;;
8219;SDS011;4151;51.110;7.020;2022-12-07T06:44:03;45.70;;;23.07;;
8219;SDS011;4151;51.110;7.020;2022-12-07T06:46:30;49.10;;;24.73;;
8219;SDS011;4151;51.110;7.020;2022-12-07T06:48:56;47.50;;;22.77;;
8219;SDS011;4151;51.110;7.020;2022-12-07T06:51:21;44.13;;;21.43;;
8219;SDS011;4151;51.110;7.020;2022-12-07T06:53:47;42.53;;;20.97;;
8219;SDS011;4151;51.110;7.020;2022-12-07T06:56:12;43.33;;;21.57;;
8219;SDS011;4151;51.110;7.020;2022-12-07T06:58:38;42.00;;;20.77;;
8219;SDS011;4151;51.110;7.020;2022-12-07T07:01:11;45.53;;;21.57;;
8219;SDS011;4151;51.110;7.020;2022-12-07T07:03:38;36.33;;;19.53;;
8219;SDS011;4151;51.110;7.020;2022-12-07T07:06:04;45.90;;;21.70;;
8219;SDS011;4151;51.110;7.020;2022-12-07T07:08:30;39.17;;;21.27;;
8219;SDS011;4151;51.110;7.020;2022-12-07T07:10:56;43.07;;;21.70;;
8219;SDS011;4151;51.110;7.020;2022-12-07T07:13:22;54.27;;;22.83;;
8219;SDS011;4151;51.110;7.020;2022-12-07T07:15:47;42.00;;;21.00;;
8219;SDS011;4151;51.110;7.020;2022-12-07T07:18:13;39.83;;;21.17;;
8219;SDS011;4151;51.110;7.020;2022-12-07T07:20:38;36.53;;;19.43;;
8219;SDS011;4151;51.110;7.020;2022-12-07T07:23:04;40.30;;;21.60;;
8219;SDS011;4151;51.110;7.020;2022-12-07T07:25:31;50.23;;;23.60;;
8219;SDS011;4151;51.110;7.020;2022-12-07T07:27:56;45.67;;;22.57;;
8219;SDS011;4151;51.110;7.020;2022-12-07T07:30:22;48.33;;;22.17;;
8219;SDS011;4151;51.110;7.020;2022-12-07T07:32:48;52.00;;;25.57;;
8219;SDS011;4151;51.110;7.020;2022-12-07T07:35:14;40.20;;;21.00;;
8219;SDS011;4151;51.110;7.020;2022-12-07T07:37:39;42.83;;;21.27;;
8219;SDS011;4151;51.110;7.020;2022-12-07T07:40:06;43.87;;;20.37;;
8219;SDS011;4151;51.110;7.020;2022-12-07T07:42:32;49.27;;;22.87;;
8219;SDS011;4151;51.110;7.020;2022-12-07T07:44:58;40.90;;;22.70;;
8219;SDS011;4151;51.110;7.020;2022-12-07T07:47:23;46.50;;;22.30;;
8219;SDS011;4151;51.110;7.020;2022-12-07T07:49:49;33.40;;;19.43;;
8219;SDS011;4151;51.110;7.020;2022-12-07T07:52:15;43.93;;;21.50;;
8219;SDS011;4151;51.110;7.020;2022-12-07T07:54:40;45.57;;;22.00;;
8219;SDS011;4151;51.110;7.020;2022-12-07T07:57:06;39.43;;;20.10;;
8219;SDS011;4151;51.110;7.020;2022-12-07T07:59:32;47.13;;;19.20;;
8219;SDS011;4151;51.110;7.020;2022-12-07T08:01:57;44.60;;;20.67;;
8219;SDS011;4151;51.110;7.020;2022-12-07T08:04:23;45.03;;;20.67;;
8219;SDS011;4151;51.110;7.020;2022-12-07T08:06:48;46.60;;;22.50;;
8219;SDS011;4151;51.110;7.020;2022-12-07T08:09:14;57.90;;;20.90;;
8219;SDS011;4151;51.110;7.020;2022-12-07T08:11:39;42.07;;;21.00;;
8219;SDS011;4151;51.110;7.020;2022-12-07T08:14:05;44.60;;;20.93;;
8219;SDS011;4151;51.110;7.020;2022-12-07T08:16:30;43.97;;;18.27;;
8219;SDS011;4151;51.110;7.020;2022-12-07T08:18:56;40.23;;;20.27;;
8219;SDS011;4151;51.110;7.020;2022-12-07T08:21:22;46.10;;;23.10;;
8219;SDS011;4151;51.110;7.020;2022-12-07T08:23:48;42.53;;;21.77;;
8219;SDS011;4151;51.110;7.020;2022-12-07T08:26:14;43.10;;;21.80;;
8219;SDS011;4151;51.110;7.020;2022-12-07T08:28:41;48.47;;;22.87;;
8219;SDS011;4151;51.110;7.020;2022-12-07T08:31:11;54.13;;;22.90;;
8219;SDS011;4151;51.110;7.020;2022-12-07T08:33:39;52.03;;;23.87;;
8219;SDS011;4151;51.110;7.020;2022-12-07T08:36:06;51.77;;;23.73;;
8219;SDS011;4151;51.110;7.020;2022-12-07T08:38:37;59.73;;;24.30;;
8219;SDS011;4151;51.110;7.020;2022-12-07T08:41:03;51.27;;;25.10;;
8219;SDS011;4151;51.110;7.020;2022-12-07T08:43:29;53.40;;;25.20;;
8219;SDS011;4151;51.110;7.020;2022-12-07T08:46:18;53.30;;;24.17;;
8219;SDS011;4151;51.110;7.020;2022-12-07T08:48:51;55.97;;;23.63;;
8219;SDS011;4151;51.110;7.020;2022-12-07T08:51:21;227.83;;;108.83;;
8219;SDS011;4151;51.110;7.020;2022-12-07T08:53:48;262.90;;;112.03;;
8219;SDS011;4151;51.110;7.020;2022-12-07T08:56:16;54.47;;;26.40;;
8219;SDS011;4151;51.110;7.020;2022-12-07T08:58:42;50.80;;;22.97;;
8219;SDS011;4151;51.110;7.020;2022-12-07T09:01:08;49.90;;;23.23;;
8219;SDS011;4151;51.110;7.020;2022-12-07T09:03:34;42.40;;;21.43;;
8219;SDS011;4151;51.110;7.020;2022-12-07T09:06:00;40.03;;;20.63;;
8219;SDS011;4151;51.110;7.020;2022-12-07T09:08:33;40.27;;;21.77;;
8219;SDS011;4151;51.110;7.020;2022-12-07T09:11:03;43.87;;;21.10;;
8219;SDS011;4151;51.110;7.020;2022-12-07T09:13:29;48.87;;;21.80;;
8219;SDS011;4151;51.110;7.020;2022-12-07T09:15:54;42.83;;;21.00;;
8219;SDS011;4151;51.110;7.020;2022-12-07T09:18:20;63.10;;;22.73;;
8219;SDS011;4151;51.110;7.020;2022-12-07T09:20:45;52.33;;;24.23;;
8219;SDS011;4151;51.110;7.020;2022-12-07T09:23:11;52.43;;;23.10;;
8219;SDS011;4151;51.110;7.020;2022-12-07T09:25:36;49.40;;;24.17;;
8219;SDS011;4151;51.110;7.020;2022-12-07T09:28:02;51.57;;;24.40;;
8219;SDS011;4151;51.110;7.020;2022-12-07T09:30:28;52.20;;;24.10;;
8219;SDS011;4151;51.110;7.020;2022-12-07T09:32:54;56.97;;;25.07;;
8219;SDS011;4151;51.110;7.020;2022-12-07T09:35:20;51.77;;;24.60;;
8219;SDS011;4151;51.110;7.020;2022-12-07T09:37:46;50.53;;;23.50;;
8219;SDS011;4151;51.110;7.020;2022-12-07T09:40:12;45.00;;;23.70;;
8219;SDS011;4151;51.110;7.020;2022-12-07T09:42:39;48.40;;;23.50;;
8219;SDS011;4151;51.110;7.020;2022-12-07T09:45:19;47.17;;;21.80;;
8219;SDS011;4151;51.110;7.020;2022-12-07T09:47:48;42.20;;;22.60;;
8219;SDS011;4151;51.110;7.020;2022-12-07T09:50:15;52.77;;;22.73;;
8219;SDS011;4151;51.110;7.020;2022-12-07T09:52:45;47.10;;;23.60;;
8219;SDS011;4151;51.110;7.020;2022-12-07T09:55:13;42.20;;;21.73;;
8219;SDS011;4151;51.110;7.020;2022-12-07T09:57:41;56.03;;;22.90;;
8219;SDS011;4151;51.110;7.020;2022-12-07T10:00:12;45.27;;;21.37;;
8219;SDS011;4151;51.110;7.020;2022-12-07T10:05:26;45.83;;;23.10;;
8219;SDS011;4151;51.110;7.020;2022-12-07T10:07:56;45.13;;;21.60;;
8219;SDS011;4151;51.110;7.020;2022-12-07T10:10:26;47.03;;;22.53;;
8219;SDS011;4151;51.110;7.020;2022-12-07T10:12:56;42.80;;;19.53;;
8219;SDS011;4151;51.110;7.020;2022-12-07T10:15:22;34.37;;;20.43;;
8219;SDS011;4151;51.110;7.020;2022-12-07T10:17:51;37.87;;;19.50;;
8219;SDS011;4151;51.110;7.020;2022-12-07T10:20:21;37.97;;;20.07;;
8219;SDS011;4151;51.110;7.020;2022-12-07T10:25:25;32.17;;;16.73;;
8219;SDS011;4151;51.110;7.020;2022-12-07T10:30:45;43.17;;;19.07;;
8219;SDS011;4151;51.110;7.020;2022-12-07T10:36:23;34.63;;;16.90;;
8219;SDS011;4151;51.110;7.020;2022-12-07T10:38:59;30.87;;;16.80;;
8219;SDS011;4151;51.110;7.020;2022-12-07T10:41:35;31.50;;;17.00;;
8219;SDS011;4151;51.110;7.020;2022-12-07T10:44:20;31.33;;;15.43;;
8219;SDS011;4151;51.110;7.020;2022-12-07T10:55:14;28.20;;;13.93;;
8219;SDS011;4151;51.110;7.020;2022-12-07T10:58:06;27.90;;;13.87;;
8219;SDS011;4151;51.110;7.020;2022-12-07T11:06:54;26.73;;;14.40;;
8219;SDS011;4151;51.110;7.020;2022-12-07T11:12:29;24.73;;;12.30;;
8219;SDS011;4151;51.110;7.020;2022-12-07T11:26:32;27.43;;;11.93;;
8219;SDS011;4151;51.110;7.020;2022-12-07T11:36:56;22.17;;;10.70;;
8219;SDS011;4151;51.110;7.020;2022-12-07T11:39:25;29.23;;;10.03;;
8219;SDS011;4151;51.110;7.020;2022-12-07T11:42:13;28.13;;;10.67;;
8219;SDS011;4151;51.110;7.020;2022-12-07T11:44:55;20.57;;;10.60;;
8219;SDS011;4151;51.110;7.020;2022-12-07T11:47:40;21.10;;;9.93;;
8219;SDS011;4151;51.110;7.020;2022-12-07T11:50:21;24.70;;;10.47;;
8219;SDS011;4151;51.110;7.020;2022-12-07T11:52:57;21.03;;;10.97;;
8219;SDS011;4151;51.110;7.020;2022-12-07T11:55:31;25.97;;;11.70;;
8219;SDS011;4151;51.110;7.020;2022-12-07T11:58:05;23.77;;;10.77;;
8219;SDS011;4151;51.110;7.020;2022-12-07T12:00:49;18.30;;;9.60;;
8219;SDS011;4151;51.110;7.020;2022-12-07T12:03:27;15.30;;;8.17;;
8219;SDS011;4151;51.110;7.020;2022-12-07T12:05:58;23.23;;;8.87;;
8219;SDS011;4151;51.110;7.020;2022-12-07T12:08:27;20.13;;;9.00;;
8219;SDS011;4151;51.110;7.020;2022-12-07T12:22:39;15.40;;;9.30;;
8219;SDS011;4151;51.110;7.020;2022-12-07T12:24:48;15.63;;;9.33;;
8219;SDS011;4151;51.110;7.020;2022-12-07T12:27:20;12.97;;;7.83;;
8219;SDS011;4151;51.110;7.020;2022-12-07T12:29:59;12.90;;;7.10;;
8219;SDS011;4151;51.110;7.020;2022-12-07T12:32:40;15.03;;;7.40;;
8219;SDS011;4151;51.110;7.020;2022-12-07T12:37:55;11.50;;;6.77;;
8219;SDS011;4151;51.110;7.020;2022-12-07T12:40:55;13.37;;;5.93;;
8219;SDS011;4151;51.110;7.020;2022-12-07T12:51:46;20.93;;;6.37;;
8219;SDS011;4151;51.110;7.020;2022-12-07T12:54:20;16.73;;;7.07;;
8219;SDS011;4151;51.110;7.020;2022-12-07T13:02:27;22.00;;;8.97;;
8219;SDS011;4151;51.110;7.020;2022-12-07T13:19:56;14.50;;;8.00;;
8219;SDS011;4151;51.110;7.020;2022-12-07T13:25:11;14.03;;;7.63;;
8219;SDS011;4151;51.110;7.020;2022-12-07T13:28:16;14.97;;;8.00;;
8219;SDS011;4151;51.110;7.020;2022-12-07T13:30:45;26.43;;;8.33;;
8219;SDS011;4151;51.110;7.020;2022-12-07T13:33:14;20.93;;;8.50;;
8219;SDS011;4151;51.110;7.020;2022-12-07T13:35:42;26.23;;;7.90;;
8219;SDS011;4151;51.110;7.020;2022-12-07T13:38:31;16.50;;;7.90;;
8219;SDS011;4151;51.110;7.020;2022-12-07T13:40:59;20.70;;;7.80;;
8219;SDS011;4151;51.110;7.020;2022-12-07T13:43:25;21.03;;;8.27;;
8219;SDS011;4151;51.110;7.020;2022-12-07T13:45:57;17.40;;;8.60;;
8219;SDS011;4151;51.110;7.020;2022-12-07T13:48:43;22.57;;;7.97;;
8219;SDS011;4151;51.110;7.020;2022-12-07T13:51:14;25.30;;;8.00;;
8219;SDS011;4151;51.110;7.020;2022-12-07T13:53:50;18.73;;;7.83;;
8219;SDS011;4151;51.110;7.020;2022-12-07T13:56:20;22.60;;;7.97;;
8219;SDS011;4151;51.110;7.020;2022-12-07T13:58:50;15.03;;;7.60;;
8219;SDS011;4151;51.110;7.020;2022-12-07T14:01:16;23.63;;;8.20;;
8219;SDS011;4151;51.110;7.020;2022-12-07T14:03:43;18.60;;;7.27;;
8219;SDS011;4151;51.110;7.020;2022-12-07T14:08:40;17.07;;;7.57;;
8219;SDS011;4151;51.110;7.020;2022-12-07T14:11:07;20.23;;;6.90;;
8219;SDS011;4151;51.110;7.020;2022-12-07T14:13:50;13.83;;;6.03;;
8219;SDS011;4151;51.110;7.020;2022-12-07T14:16:23;14.37;;;6.00;;
8219;SDS011;4151;51.110;7.020;2022-12-07T14:18:50;12.37;;;5.50;;
8219;SDS011;4151;51.110;7.020;2022-12-07T14:21:17;14.03;;;5.83;;
8219;SDS011;4151;51.110;7.020;2022-12-07T14:24:01;13.87;;;5.00;;
8219;SDS011;4151;51.110;7.020;2022-12-07T14:26:33;17.10;;;5.57;;
8219;SDS011;4151;51.110;7.020;2022-12-07T14:31:43;13.93;;;4.97;;
8219;SDS011;4151;51.110;7.020;2022-12-07T14:34:11;13.67;;;5.20;;
8219;SDS011;4151;51.110;7.020;2022-12-07T14:36:37;12.93;;;5.57;;
8219;SDS011;4151;51.110;7.020;2022-12-07T14:39:02;8.73;;;4.80;;
8219;SDS011;4151;51.110;7.020;2022-12-07T14:41:28;16.33;;;5.80;;
8219;SDS011;4151;51.110;7.020;2022-12-07T14:44:12;14.63;;;7.43;;
8219;SDS011;4151;51.110;7.020;2022-12-07T14:46:38;17.13;;;6.30;;
8219;SDS011;4151;51.110;7.020;2022-12-07T14:49:03;10.53;;;6.10;;
8219;SDS011;4151;51.110;7.020;2022-12-07T14:51:30;17.23;;;6.43;;
8219;SDS011;4151;51.110;7.020;2022-12-07T14:53:55;16.37;;;7.57;;
8219;SDS011;4151;51.110;7.020;2022-12-07T14:56:21;17.23;;;7.87;;
8219;SDS011;4151;51.110;7.020;2022-12-07T14:58:47;15.50;;;6.93;;
8219;SDS011;4151;51.110;7.020;2022-12-07T15:01:13;13.00;;;7.80;;
8219;SDS011;4151;51.110;7.020;2022-12-07T15:03:39;20.17;;;8.37;;
8219;SDS011;4151;51.110;7.020;2022-12-07T15:06:05;28.83;;;8.87;;
8219;SDS011;4151;51.110;7.020;2022-12-07T15:08:31;20.70;;;7.67;;
8219;SDS011;4151;51.110;7.020;2022-12-07T15:10:57;17.50;;;8.73;;
8219;SDS011;4151;51.110;7.020;2022-12-07T15:13:22;15.37;;;8.00;;
8219;SDS011;4151;51.110;7.020;2022-12-07T15:16:10;21.23;;;10.00;;
8219;SDS011;4151;51.110;7.020;2022-12-07T15:18:41;22.73;;;10.20;;
8219;SDS011;4151;51.110;7.020;2022-12-07T15:21:11;21.37;;;10.97;;
8219;SDS011;4151;51.110;7.020;2022-12-07T15:23:39;19.33;;;11.17;;
8219;SDS011;4151;51.110;7.020;2022-12-07T15:26:04;25.40;;;10.80;;
8219;SDS011;4151;51.110;7.020;2022-12-07T15:28:30;26.97;;;10.33;;
8219;SDS011;4151;51.110;7.020;2022-12-07T15:30:55;19.17;;;9.80;;
8219;SDS011;4151;51.110;7.020;2022-12-07T15:33:21;34.50;;;10.53;;
8219;SDS011;4151;51.110;7.020;2022-12-07T15:35:46;21.57;;;9.97;;
8219;SDS011;4151;51.110;7.020;2022-12-07T15:38:12;19.83;;;9.47;;
8219;SDS011;4151;51.110;7.020;2022-12-07T15:40:38;22.90;;;9.87;;
8219;SDS011;4151;51.110;7.020;2022-12-07T15:43:04;27.70;;;9.83;;
8219;SDS011;4151;51.110;7.020;2022-12-07T15:45:30;23.87;;;9.27;;
8219;SDS011;4151;51.110;7.020;2022-12-07T15:47:55;24.37;;;9.87;;
8219;SDS011;4151;51.110;7.020;2022-12-07T15:50:21;20.63;;;11.00;;
8219;SDS011;4151;51.110;7.020;2022-12-07T15:52:47;26.97;;;9.17;;
8219;SDS011;4151;51.110;7.020;2022-12-07T15:55:13;19.37;;;9.13;;
8219;SDS011;4151;51.110;7.020;2022-12-07T15:57:38;26.43;;;8.60;;
8219;SDS011;4151;51.110;7.020;2022-12-07T16:00:05;15.43;;;8.50;;
8219;SDS011;4151;51.110;7.020;2022-12-07T16:02:33;22.23;;;9.03;;
8219;SDS011;4151;51.110;7.020;2022-12-07T16:04:59;17.93;;;9.20;;
8219;SDS011;4151;51.110;7.020;2022-12-07T16:07:24;20.10;;;9.23;;
8219;SDS011;4151;51.110;7.020;2022-12-07T16:09:50;16.07;;;8.50;;
8219;SDS011;4151;51.110;7.020;2022-12-07T16:12:15;17.50;;;7.53;;
8219;SDS011;4151;51.110;7.020;2022-12-07T16:14:41;11.53;;;6.10;;
8219;SDS011;4151;51.110;7.020;2022-12-07T16:17:07;16.13;;;6.83;;
8219;SDS011;4151;51.110;7.020;2022-12-07T16:19:34;21.13;;;6.70;;
8219;SDS011;4151;51.110;7.020;2022-12-07T16:22:01;10.73;;;5.67;;
8219;SDS011;4151;51.110;7.020;2022-12-07T16:24:28;19.83;;;6.80;;
8219;SDS011;4151;51.110;7.020;2022-12-07T16:26:53;17.57;;;7.33;;
8219;SDS011;4151;51.110;7.020;2022-12-07T16:29:20;12.83;;;6.67;;
8219;SDS011;4151;51.110;7.020;2022-12-07T16:31:46;20.00;;;6.87;;
8219;SDS011;4151;51.110;7.020;2022-12-07T16:34:12;19.40;;;7.20;;
8219;SDS011;4151;51.110;7.020;2022-12-07T16:36:38;19.10;;;8.83;;
8219;SDS011;4151;51.110;7.020;2022-12-07T16:39:04;19.50;;;7.73;;
8219;SDS011;4151;51.110;7.020;2022-12-07T16:41:30;15.50;;;6.87;;
8219;SDS011;4151;51.110;7.020;2022-12-07T16:43:56;11.97;;;8.53;;
8219;SDS011;4151;51.110;7.020;2022-12-07T16:46:26;14.63;;;7.53;;
8219;SDS011;4151;51.110;7.020;2022-12-07T16:48:52;10.40;;;7.30;;
8219;SDS011;4151;51.110;7.020;2022-12-07T16:51:17;18.30;;;8.13;;
8219;SDS011;4151;51.110;7.020;2022-12-07T16:53:43;14.73;;;7.03;;
8219;SDS011;4151;51.110;7.020;2022-12-07T16:56:12;14.47;;;8.10;;
8219;SDS011;4151;51.110;7.020;2022-12-07T16:58:39;23.70;;;7.80;;
8219;SDS011;4151;51.110;7.020;2022-12-07T17:03:37;16.90;;;8.73;;
8219;SDS011;4151;51.110;7.020;2022-12-07T17:06:03;22.43;;;9.77;;
8219;SDS011;4151;51.110;7.020;2022-12-07T17:08:35;15.90;;;8.97;;
8219;SDS011;4151;51.110;7.020;2022-12-07T17:11:00;18.57;;;8.93;;
8219;SDS011;4151;51.110;7.020;2022-12-07T17:13:26;18.60;;;10.23;;
8219;SDS011;4151;51.110;7.020;2022-12-07T17:16:10;20.50;;;9.70;;